Du har inga inställningar för hoppväder.nu

Hoppväder.nu

Senast uppdaterat 14:14

UTC-tid

2020-02-25 kl. 13:14


Sol och måne

Solen går upp 7:09 och går ner 17:17 (beräknade cirkatider)
Nästa fullmåne blir om 13 dagar (2020-03-09)

METAR

ESOE (Örebro)
(24 minuter sedan)
ESOE 251250Z 06013KT 9999 BKN024 04/M01 Q0990=



ESOK (Karlstad)
(24 minuter sedan)
ESOK 251250Z 06018KT 9999 FEW030 02/M04 Q0989=



ESGR (Skövde)
(24 minuter sedan)
ESGR 251250Z AUTO 08012KT 050V110 2000 -SN VV014 01/01 Q0986=



ESSD (Borlänge)
(24 minuter sedan)
ESSD 251250Z 07012KT 030V100 9999 FEW017 02/M05 Q0993=



ESOW (Västerås)
(24 minuter sedan)
ESOW 251250Z 05011KT 9999 VCSH FEW028 BKN040TCU 04/M02 Q0992=



TAF

ESOE (Örebro)
(104 minuter sedan)
ESOE 251130Z 2512/2521 08013KT CAVOK PROB40 2513/2519 07015G25KT 2000 -SN VV012 BECMG 2519/2521 06015G25KT=



ESOK (Karlstad)
(104 minuter sedan)
ESOK 251130Z 2512/2516 06013KT 9999 BKN030 PROB40 2514/2516 06015G25KT 2000 -SN VV012=



ESGR (Skövde)
ESGR



ESSD (Borlänge)
(86 minuter sedan)
ESSD COR 251148Z 2512/2516 08009KT 9999 BKN016 PROB40 2512/2514 BKN014 PROB40 2514/2516 4000 -SN VV014=



ESOW (Västerås)
(104 minuter sedan)
ESOW 251130Z 2512/2516 07012KT 9999 SCT020 PROB40 2513/2516 4000 -SHSNRA SCT020TCU=





Kodnycklar till TAF och METAR






LHP

(Örebro är område G2a i Södra delen)

ÖVERSIKT FÖR OMRÅDE se3 UTFÄRDAD 251247
GÄLLANDE DEN 25 FEBRUARI 2020 MELLAN 13 OCH 21 UTC


Väderöversikt

Ett lågtryck och en ockluderad front drar långsamt österut över södra Sverige.

Sikt under 5 kilometer eller molnbas under 1000 fot
13-19UTC: Hela området utom se34
19-21UTC: Område se32 och se33


Måttlig eller svår isbildning
13-21UTC: Hela området utom se34


Måttlig eller svår turbulens
13-21UTC: Hela området utom se34








Spotting

Hur fungerar spotthjälpen och Vindkartan?

Markvind är ca 0 m/s.
Vind på 600 m ca 0 m/s.
Vind på 1500 m ca 0 m/s.
Vind på 3000 m ca 0 m/s.
FXB flyger ca 36 m/s över marken på finalen.
Du driver ca 0 m bakåt i frifall. (0 m)
Lämplig spot är 8 sekunder eller 288 m innan gropen.
(-8s eller -288 m)
För små grupper eller ensamhoppare bör man vänta 4-6 sekunder mellan grupperna.
För större grupper bör man vänta 8-10 sekunder mellan grupperna.


Vindkartan

Senast uppdaterad 14:14




All data kommer från LFV.se